KBKT/BKT METAR and TAF weather

Enter ICAO airport designator
Station Type Date Time Source
KBKT METAR 2019/04/18 10:35 UTC NOAA

KBKT 181035Z AUTO 00000KT 10SM CLR 11/11 A3000 RMK AO1 T01070107


Station Type Date Time Source
KBKT Decoded METAR 2019/04/18 10:35 UTC NOAA

Ft. Pickett / Blackstone, VA, United States (KBKT) 37-05N 077-57W
Apr 18, 2019 - 06:35 AM EDT / 2019.04.18 1035 UTC
Wind: Calm:0
Visibility: 10 mile(s):0
Sky conditions: clear
Temperature: 51.3 F (10.7 C)
Dew Point: 51.3 F (10.7 C)
Relative Humidity: 100%
Pressure (altimeter): 30 in. Hg (1015 hPa)
ob: KBKT 181035Z AUTO 00000KT 10SM CLR 11/11 A3000 RMK AO1 T01070107
cycle: 10

Station Type Date Time Source
KBKT TAF UTC NOAA

Error!

Example: see airport list